DLH429 ULLI-UMKK
Flight info
| Callsign | DLH429 |
|---|---|
| Flight time | 1h 29m |
| Altitude | 38000 |
| Route | UTETA DCT PISIS DCT ARANS/N0476F380 DCT PIDIN DCT PISIM DCT PIRUX DCT PIVAX/N0481F390 DCT GARSO DCT AGONA DCT TURIP |
| Aircraft | A346/H-SDE2E3FGHIJ3J4J5M1RWXY/LB1D1 |
Departure
| Time | 2026-05-08 19:09 |
|---|---|
| Airport | Pulkovo Airport (ULLI) |
Arrival
| Time | 2026-05-08 20:38 |
|---|---|
| Airport | Khrabrovo Airport (UMKK) |
| Time | Latitude | Longitude | Altitude | Speed | Heading |
|---|---|---|---|---|---|
| 2026-05-08 18:38 | 59.79746 | 30.25939 | 86 ft | 0 kts | 286° |
| 2026-05-08 18:54 | 59.79741 | 30.25972 | 88 ft | 3 kts | 292° |
| 2026-05-08 18:54 | 59.79732 | 30.26007 | 88 ft | 3 kts | 303° |
| 2026-05-08 18:54 | 59.79720 | 30.26036 | 86 ft | 3 kts | 316° |
| 2026-05-08 18:55 | 59.79689 | 30.26070 | 87 ft | 3 kts | 351° |
| 2026-05-08 18:55 | 59.79672 | 30.26071 | 88 ft | 3 kts | 11° |
| 2026-05-08 18:55 | 59.79664 | 30.26067 | 87 ft | 0 kts | 16° |
| 2026-05-08 18:58 | 59.79665 | 30.26067 | 87 ft | 0 kts | 16° |
| 2026-05-08 18:59 | 59.79712 | 30.26095 | 89 ft | 10 kts | 16° |
| 2026-05-08 18:59 | 59.79793 | 30.26143 | 86 ft | 14 kts | 17° |
| 2026-05-08 18:59 | 59.79865 | 30.26185 | 87 ft | 13 kts | 17° |
| 2026-05-08 18:59 | 59.79986 | 30.26257 | 86 ft | 20 kts | 17° |
| 2026-05-08 19:00 | 59.80127 | 30.26340 | 84 ft | 17 kts | 17° |
| 2026-05-08 19:00 | 59.80230 | 30.26401 | 86 ft | 13 kts | 17° |
| 2026-05-08 19:00 | 59.80300 | 30.26438 | 86 ft | 13 kts | 9° |
| 2026-05-08 19:00 | 59.80394 | 30.26472 | 87 ft | 6 kts | 14° |
| 2026-05-08 19:01 | 59.80440 | 30.26461 | 86 ft | 9 kts | 318° |
| 2026-05-08 19:01 | 59.80476 | 30.26322 | 88 ft | 13 kts | 289° |
| 2026-05-08 19:01 | 59.80509 | 30.26106 | 85 ft | 19 kts | 286° |
| 2026-05-08 19:01 | 59.80548 | 30.25846 | 84 ft | 19 kts | 287° |
| 2026-05-08 19:02 | 59.80590 | 30.25568 | 83 ft | 23 kts | 287° |
| 2026-05-08 19:02 | 59.80638 | 30.25249 | 79 ft | 25 kts | 287° |
| 2026-05-08 19:02 | 59.80674 | 30.25007 | 79 ft | 18 kts | 286° |
| 2026-05-08 19:02 | 59.80697 | 30.24853 | 78 ft | 9 kts | 286° |
| 2026-05-08 19:03 | 59.80705 | 30.24802 | 77 ft | 1 kts | 286° |
| 2026-05-08 19:03 | 59.80711 | 30.24757 | 77 ft | 5 kts | 286° |
| 2026-05-08 19:03 | 59.80731 | 30.24668 | 79 ft | 8 kts | 309° |
| 2026-05-08 19:03 | 59.80757 | 30.24630 | 76 ft | 0 kts | 339° |
| 2026-05-08 19:05 | 59.80759 | 30.24629 | 75 ft | 0 kts | 339° |
| 2026-05-08 19:05 | 59.80787 | 30.24610 | 79 ft | 0 kts | 343° |
| 2026-05-08 19:06 | 59.80789 | 30.24609 | 79 ft | 2 kts | 343° |
| 2026-05-08 19:06 | 59.80872 | 30.24568 | 63 ft | 19 kts | 350° |
| 2026-05-08 19:07 | 59.80932 | 30.24570 | 68 ft | 5 kts | 25° |
| 2026-05-08 19:07 | 59.80951 | 30.24690 | 64 ft | 12 kts | 102° |
| 2026-05-08 19:07 | 59.80945 | 30.24740 | 70 ft | 0 kts | 105° |
| 2026-05-08 19:08 | 59.80942 | 30.24759 | 76 ft | 11 kts | 105° |
| 2026-05-08 19:08 | 59.80850 | 30.25381 | 80 ft | 82 kts | 107° |
| 2026-05-08 19:08 | 59.80623 | 30.26882 | 86 ft | 142 kts | 107° |
| 2026-05-08 19:09 | 59.80304 | 30.29059 | 270 ft | 175 kts | 105° |
| 2026-05-08 19:09 | 59.79954 | 30.31411 | 947 ft | 179 kts | 105° |
| 2026-05-08 19:09 | 59.79586 | 30.33781 | 1740 ft | 180 kts | 101° |
| 2026-05-08 19:09 | 59.79227 | 30.36157 | 2476 ft | 180 kts | 100° |
| 2026-05-08 19:10 | 59.78876 | 30.38569 | 3098 ft | 186 kts | 99° |
| 2026-05-08 19:10 | 59.78506 | 30.41148 | 3554 ft | 203 kts | 100° |
| 2026-05-08 19:10 | 59.78094 | 30.43979 | 3992 ft | 223 kts | 101° |
| 2026-05-08 19:10 | 59.77643 | 30.47012 | 4673 ft | 232 kts | 101° |
| 2026-05-08 19:11 | 59.77175 | 30.50104 | 5559 ft | 234 kts | 102° |
| 2026-05-08 19:11 | 59.76883 | 30.53263 | 6447 ft | 232 kts | 81° |
| 2026-05-08 19:11 | 59.77386 | 30.56250 | 7247 ft | 230 kts | 52° |
| 2026-05-08 19:11 | 59.78566 | 30.58336 | 8052 ft | 229 kts | 24° |
| 2026-05-08 19:12 | 59.80078 | 30.59355 | 8964 ft | 230 kts | 15° |
| 2026-05-08 19:12 | 59.81617 | 30.60261 | 9932 ft | 231 kts | 15° |
| 2026-05-08 19:12 | 59.83199 | 30.60800 | 10804 ft | 234 kts | 355° |
| 2026-05-08 19:12 | 59.84766 | 30.59914 | 11618 ft | 239 kts | 331° |
| 2026-05-08 19:13 | 59.86024 | 30.57694 | 12393 ft | 252 kts | 307° |
| 2026-05-08 19:13 | 59.86735 | 30.54387 | 13094 ft | 266 kts | 291° |
| 2026-05-08 19:13 | 59.87257 | 30.50896 | 14075 ft | 266 kts | 290° |
| 2026-05-08 19:13 | 59.87559 | 30.47223 | 14909 ft | 274 kts | 277° |
| 2026-05-08 19:14 | 59.87425 | 30.43373 | 15676 ft | 283 kts | 266° |
| 2026-05-08 19:14 | 59.87082 | 30.39491 | 16526 ft | 285 kts | 265° |
| 2026-05-08 19:14 | 59.86713 | 30.35602 | 17403 ft | 286 kts | 265° |
| 2026-05-08 19:14 | 59.86342 | 30.31695 | 18266 ft | 288 kts | 264° |
| 2026-05-08 19:15 | 59.85970 | 30.27759 | 18982 ft | 293 kts | 264° |
| 2026-05-08 19:15 | 59.85585 | 30.23663 | 19337 ft | 309 kts | 264° |
| 2026-05-08 19:15 | 59.85177 | 30.19333 | 19646 ft | 326 kts | 264° |
| 2026-05-08 19:15 | 59.84744 | 30.14775 | 19947 ft | 343 kts | 263° |
| 2026-05-08 19:16 | 59.84288 | 30.09990 | 20235 ft | 360 kts | 263° |
| 2026-05-08 19:16 | 59.83807 | 30.04992 | 20529 ft | 375 kts | 263° |
| 2026-05-08 19:16 | 59.83305 | 29.99793 | 20811 ft | 390 kts | 263° |
| 2026-05-08 19:16 | 59.82782 | 29.94413 | 21270 ft | 399 kts | 262° |
| 2026-05-08 19:17 | 59.82250 | 29.88968 | 21970 ft | 402 kts | 262° |
| 2026-05-08 19:17 | 59.81712 | 29.83493 | 22709 ft | 404 kts | 262° |
| 2026-05-08 19:17 | 59.81170 | 29.77979 | 23412 ft | 407 kts | 262° |
| 2026-05-08 19:17 | 59.80626 | 29.72433 | 24072 ft | 410 kts | 262° |
| 2026-05-08 19:18 | 59.80078 | 29.66851 | 24648 ft | 413 kts | 262° |
| 2026-05-08 19:18 | 59.79523 | 29.61240 | 25221 ft | 416 kts | 262° |
| 2026-05-08 19:18 | 59.78960 | 29.55568 | 25788 ft | 418 kts | 261° |
| 2026-05-08 19:18 | 59.78393 | 29.49880 | 26316 ft | 421 kts | 261° |
| 2026-05-08 19:19 | 59.77820 | 29.44147 | 26850 ft | 424 kts | 260° |
| 2026-05-08 19:19 | 59.77235 | 29.38374 | 27376 ft | 428 kts | 260° |
| 2026-05-08 19:19 | 59.76643 | 29.32564 | 27932 ft | 430 kts | 260° |
| 2026-05-08 19:19 | 59.76046 | 29.26731 | 28501 ft | 432 kts | 259° |
| 2026-05-08 19:20 | 59.75444 | 29.20875 | 29057 ft | 434 kts | 259° |
| 2026-05-08 19:20 | 59.75243 | 29.18883 | 29257 ft | 434 kts | 260° |
| 2026-05-08 19:20 | 59.74678 | 29.09053 | 30602 ft | 427 kts | 267° |
| 2026-05-08 19:20 | 59.74666 | 29.03182 | 31328 ft | 424 kts | 271° |
| 2026-05-08 19:21 | 59.74891 | 28.97365 | 31896 ft | 424 kts | 276° |
| 2026-05-08 19:21 | 59.75359 | 28.91568 | 32407 ft | 426 kts | 280° |
| 2026-05-08 19:21 | 59.76071 | 28.85847 | 32924 ft | 428 kts | 285° |
| 2026-05-08 19:21 | 59.76948 | 28.80191 | 33438 ft | 428 kts | 286° |
| 2026-05-08 19:22 | 59.77853 | 28.74544 | 33965 ft | 429 kts | 286° |
| 2026-05-08 19:22 | 59.78766 | 28.68895 | 34476 ft | 430 kts | 286° |
| 2026-05-08 19:22 | 59.79681 | 28.63229 | 34895 ft | 430 kts | 286° |
| 2026-05-08 19:22 | 59.80592 | 28.57563 | 35326 ft | 430 kts | 286° |
| 2026-05-08 19:23 | 59.81502 | 28.51884 | 35791 ft | 430 kts | 286° |
| 2026-05-08 19:23 | 59.82407 | 28.46219 | 36238 ft | 429 kts | 286° |
| 2026-05-08 19:23 | 59.83309 | 28.40554 | 36660 ft | 429 kts | 286° |
| 2026-05-08 19:23 | 59.84209 | 28.34884 | 37028 ft | 430 kts | 286° |
| 2026-05-08 19:24 | 59.85107 | 28.29205 | 37334 ft | 432 kts | 286° |
| 2026-05-08 19:24 | 59.86009 | 28.23485 | 37628 ft | 434 kts | 286° |
| 2026-05-08 19:24 | 59.86911 | 28.17742 | 37924 ft | 435 kts | 286° |
| 2026-05-08 19:24 | 59.87814 | 28.11972 | 38206 ft | 437 kts | 286° |
| 2026-05-08 19:25 | 59.88720 | 28.06171 | 38396 ft | 440 kts | 286° |
| 2026-05-08 19:25 | 59.90533 | 27.94498 | 38403 ft | 441 kts | 286° |
| 2026-05-08 19:26 | 59.92340 | 27.82786 | 38405 ft | 441 kts | 285° |
| 2026-05-08 19:26 | 59.94136 | 27.71063 | 38405 ft | 441 kts | 285° |
| 2026-05-08 19:27 | 59.95922 | 27.59326 | 38406 ft | 441 kts | 285° |
| 2026-05-08 19:27 | 59.97698 | 27.47572 | 38417 ft | 441 kts | 285° |
| 2026-05-08 19:28 | 59.99465 | 27.35788 | 38415 ft | 443 kts | 285° |
| 2026-05-08 19:28 | 60.01224 | 27.23968 | 38409 ft | 443 kts | 285° |
| 2026-05-08 19:29 | 60.02802 | 27.12050 | 38407 ft | 443 kts | 280° |
| 2026-05-08 19:29 | 60.03553 | 26.99790 | 38614 ft | 446 kts | 272° |
| 2026-05-08 19:29 | 60.03594 | 26.93679 | 38992 ft | 443 kts | 268° |
| 2026-05-08 19:30 | 60.03417 | 26.87516 | 39295 ft | 442 kts | 264° |
| 2026-05-08 19:30 | 60.03021 | 26.81412 | 39530 ft | 443 kts | 261° |
| 2026-05-08 19:30 | 60.02421 | 26.75357 | 39719 ft | 443 kts | 258° |
| 2026-05-08 19:30 | 60.01772 | 26.69324 | 39924 ft | 443 kts | 258° |
| 2026-05-08 19:31 | 60.01111 | 26.63253 | 40126 ft | 444 kts | 258° |
| 2026-05-08 19:31 | 60.00448 | 26.57216 | 40315 ft | 444 kts | 258° |
| 2026-05-08 19:31 | 59.99781 | 26.51176 | 40395 ft | 445 kts | 258° |
| 2026-05-08 19:32 | 59.98437 | 26.39097 | 40403 ft | 445 kts | 258° |
| 2026-05-08 19:32 | 59.97080 | 26.27014 | 40406 ft | 445 kts | 258° |
| 2026-05-08 19:33 | 59.95711 | 26.14942 | 40407 ft | 445 kts | 258° |
| 2026-05-08 19:33 | 59.94330 | 26.02879 | 40407 ft | 445 kts | 257° |
| 2026-05-08 19:34 | 59.92933 | 25.90811 | 40402 ft | 447 kts | 257° |
| 2026-05-08 19:34 | 59.91513 | 25.78718 | 40399 ft | 448 kts | 257° |
| 2026-05-08 19:35 | 59.90080 | 25.66618 | 40398 ft | 448 kts | 257° |
| 2026-05-08 19:35 | 59.88637 | 25.54531 | 40390 ft | 448 kts | 257° |
| 2026-05-08 19:36 | 59.87184 | 25.42460 | 40389 ft | 448 kts | 257° |
| 2026-05-08 19:36 | 59.85719 | 25.30388 | 40389 ft | 448 kts | 257° |
| 2026-05-08 19:37 | 59.84244 | 25.18333 | 40390 ft | 448 kts | 256° |
| 2026-05-08 19:37 | 59.82758 | 25.06292 | 40393 ft | 448 kts | 256° |
| 2026-05-08 19:38 | 59.81257 | 24.94215 | 40387 ft | 450 kts | 256° |
| 2026-05-08 19:38 | 59.79738 | 24.82123 | 40378 ft | 451 kts | 256° |
| 2026-05-08 19:39 | 59.78220 | 24.70125 | 40378 ft | 451 kts | 256° |
| 2026-05-08 19:39 | 59.76678 | 24.58047 | 40378 ft | 451 kts | 256° |
| 2026-05-08 19:40 | 59.75120 | 24.45983 | 40369 ft | 451 kts | 255° |
| 2026-05-08 19:40 | 59.73345 | 24.34046 | 40377 ft | 451 kts | 253° |
| 2026-05-08 19:41 | 59.71543 | 24.22126 | 40378 ft | 451 kts | 253° |
| 2026-05-08 19:41 | 59.69724 | 24.10198 | 40368 ft | 452 kts | 253° |
| 2026-05-08 19:42 | 59.67888 | 23.98235 | 40375 ft | 453 kts | 253° |
| 2026-05-08 19:42 | 59.66338 | 23.88225 | 40381 ft | 453 kts | 252° |
| 2026-05-08 19:43 | 59.64479 | 23.76292 | 40381 ft | 454 kts | 252° |
| 2026-05-08 19:43 | 59.62604 | 23.64335 | 40381 ft | 454 kts | 252° |
| 2026-05-08 19:44 | 59.60724 | 23.52424 | 40389 ft | 454 kts | 252° |
| 2026-05-08 19:44 | 59.58833 | 23.40525 | 40381 ft | 454 kts | 252° |
| 2026-05-08 19:45 | 59.56924 | 23.28613 | 40380 ft | 455 kts | 252° |
| 2026-05-08 19:45 | 59.54873 | 23.16796 | 40387 ft | 455 kts | 248° |
| 2026-05-08 19:46 | 59.52282 | 23.05396 | 40394 ft | 455 kts | 245° |
| 2026-05-08 19:46 | 59.48217 | 22.88493 | 40388 ft | 455 kts | 245° |
| 2026-05-08 19:47 | 59.45492 | 22.77240 | 40385 ft | 455 kts | 244° |
| 2026-05-08 19:47 | 59.42755 | 22.66007 | 40385 ft | 455 kts | 244° |
| 2026-05-08 19:48 | 59.40010 | 22.54797 | 40388 ft | 455 kts | 244° |
| 2026-05-08 19:48 | 59.37251 | 22.43584 | 40387 ft | 457 kts | 244° |
| 2026-05-08 19:49 | 59.34473 | 22.32359 | 40388 ft | 457 kts | 244° |
| 2026-05-08 19:49 | 59.31700 | 22.21216 | 40388 ft | 457 kts | 244° |
| 2026-05-08 19:50 | 59.28883 | 22.09949 | 40385 ft | 457 kts | 244° |
| 2026-05-08 19:50 | 59.26092 | 21.98844 | 40385 ft | 457 kts | 244° |
| 2026-05-08 19:51 | 59.23273 | 21.87681 | 40385 ft | 457 kts | 244° |
| 2026-05-08 19:51 | 59.20444 | 21.76536 | 40375 ft | 458 kts | 243° |
| 2026-05-08 19:52 | 59.17602 | 21.65392 | 40384 ft | 459 kts | 243° |
| 2026-05-08 19:52 | 59.14743 | 21.54246 | 40385 ft | 460 kts | 243° |
| 2026-05-08 19:53 | 59.11869 | 21.43102 | 40386 ft | 460 kts | 243° |
| 2026-05-08 19:53 | 59.08895 | 21.32077 | 40374 ft | 460 kts | 237° |
| 2026-05-08 19:54 | 59.04884 | 21.22393 | 40376 ft | 461 kts | 224° |
| 2026-05-08 19:54 | 58.99804 | 21.14774 | 40378 ft | 467 kts | 211° |
| 2026-05-08 19:55 | 58.93857 | 21.09582 | 40387 ft | 473 kts | 200° |
| 2026-05-08 19:55 | 58.87575 | 21.05524 | 40376 ft | 474 kts | 199° |
| 2026-05-08 19:56 | 58.81308 | 21.01526 | 40380 ft | 474 kts | 199° |
| 2026-05-08 19:56 | 58.75055 | 20.97545 | 40371 ft | 474 kts | 199° |
| 2026-05-08 19:57 | 58.68790 | 20.93563 | 40372 ft | 474 kts | 199° |
| 2026-05-08 19:57 | 58.62524 | 20.89598 | 40367 ft | 474 kts | 199° |
| 2026-05-08 19:58 | 58.56254 | 20.85644 | 40368 ft | 474 kts | 199° |
| 2026-05-08 19:58 | 58.49981 | 20.81703 | 40367 ft | 474 kts | 199° |
| 2026-05-08 19:59 | 58.43697 | 20.77768 | 40359 ft | 475 kts | 199° |
| 2026-05-08 19:59 | 58.37393 | 20.73837 | 40360 ft | 475 kts | 199° |
| 2026-05-08 20:00 | 58.31109 | 20.69934 | 40359 ft | 475 kts | 199° |
| 2026-05-08 20:00 | 58.24820 | 20.66041 | 40355 ft | 475 kts | 199° |
| 2026-05-08 20:01 | 58.18530 | 20.62162 | 40350 ft | 475 kts | 199° |
| 2026-05-08 20:01 | 58.12235 | 20.58295 | 40354 ft | 475 kts | 199° |
| 2026-05-08 20:02 | 58.05952 | 20.54448 | 40343 ft | 475 kts | 199° |
| 2026-05-08 20:02 | 57.99660 | 20.50610 | 40339 ft | 475 kts | 199° |
| 2026-05-08 20:03 | 57.93373 | 20.46791 | 40336 ft | 475 kts | 199° |
| 2026-05-08 20:03 | 57.87076 | 20.42978 | 40335 ft | 475 kts | 199° |
| 2026-05-08 20:04 | 57.80787 | 20.39185 | 40334 ft | 475 kts | 199° |
| 2026-05-08 20:04 | 57.74489 | 20.35400 | 40333 ft | 475 kts | 199° |
| 2026-05-08 20:05 | 57.68234 | 20.31655 | 40323 ft | 475 kts | 199° |
| 2026-05-08 20:05 | 57.61933 | 20.27894 | 40323 ft | 475 kts | 199° |
| 2026-05-08 20:06 | 57.55640 | 20.24155 | 40326 ft | 475 kts | 199° |
| 2026-05-08 20:06 | 57.49337 | 20.20422 | 40312 ft | 475 kts | 198° |
| 2026-05-08 20:07 | 57.43034 | 20.16703 | 40314 ft | 475 kts | 198° |
| 2026-05-08 20:07 | 57.36717 | 20.12987 | 40313 ft | 476 kts | 198° |
| 2026-05-08 20:08 | 57.30401 | 20.09288 | 40312 ft | 476 kts | 198° |
| 2026-05-08 20:08 | 57.24085 | 20.05601 | 40316 ft | 476 kts | 198° |
| 2026-05-08 20:09 | 57.17773 | 20.01931 | 40308 ft | 475 kts | 198° |
| 2026-05-08 20:09 | 57.11445 | 19.98359 | 40300 ft | 476 kts | 193° |
| 2026-05-08 20:10 | 57.04919 | 19.97689 | 40299 ft | 471 kts | 175° |
| 2026-05-08 20:10 | 56.98459 | 19.99862 | 40304 ft | 471 kts | 170° |
| 2026-05-08 20:11 | 56.92018 | 20.02253 | 40296 ft | 471 kts | 170° |
| 2026-05-08 20:11 | 56.85581 | 20.04602 | 40288 ft | 472 kts | 170° |
| 2026-05-08 20:12 | 56.79088 | 20.06958 | 40288 ft | 471 kts | 171° |
| 2026-05-08 20:12 | 56.72654 | 20.09270 | 40252 ft | 472 kts | 171° |
| 2026-05-08 20:13 | 56.69437 | 20.10427 | 40008 ft | 470 kts | 171° |
| 2026-05-08 20:13 | 56.66241 | 20.11571 | 39769 ft | 466 kts | 171° |
| 2026-05-08 20:13 | 56.63078 | 20.12704 | 39432 ft | 461 kts | 171° |
| 2026-05-08 20:13 | 56.59937 | 20.13819 | 38973 ft | 459 kts | 170° |
| 2026-05-08 20:14 | 56.56807 | 20.14930 | 38346 ft | 457 kts | 170° |
| 2026-05-08 20:14 | 56.53694 | 20.16034 | 37824 ft | 454 kts | 170° |
| 2026-05-08 20:14 | 56.50601 | 20.17128 | 37272 ft | 452 kts | 169° |
| 2026-05-08 20:14 | 56.47523 | 20.18217 | 36742 ft | 449 kts | 169° |
| 2026-05-08 20:15 | 56.44467 | 20.19297 | 36232 ft | 446 kts | 169° |
| 2026-05-08 20:15 | 56.41429 | 20.20369 | 35751 ft | 443 kts | 169° |
| 2026-05-08 20:15 | 56.38416 | 20.21431 | 35269 ft | 440 kts | 169° |
| 2026-05-08 20:15 | 56.35423 | 20.22484 | 34792 ft | 437 kts | 169° |
| 2026-05-08 20:16 | 56.32451 | 20.23527 | 34320 ft | 433 kts | 168° |
| 2026-05-08 20:16 | 56.29502 | 20.24561 | 33746 ft | 430 kts | 168° |
| 2026-05-08 20:16 | 56.26563 | 20.25589 | 33064 ft | 430 kts | 168° |
| 2026-05-08 20:17 | 56.17638 | 20.28698 | 30639 ft | 439 kts | 167° |
| 2026-05-08 20:17 | 56.14634 | 20.29744 | 29891 ft | 439 kts | 167° |
| 2026-05-08 20:17 | 56.11629 | 20.30794 | 28976 ft | 441 kts | 167° |
| 2026-05-08 20:18 | 56.08600 | 20.31850 | 27947 ft | 446 kts | 167° |
| 2026-05-08 20:18 | 56.05553 | 20.32908 | 27269 ft | 444 kts | 167° |
| 2026-05-08 20:18 | 56.02498 | 20.33965 | 26693 ft | 439 kts | 167° |
| 2026-05-08 20:18 | 55.99511 | 20.34996 | 26052 ft | 437 kts | 167° |
| 2026-05-08 20:19 | 55.96528 | 20.36025 | 25417 ft | 435 kts | 167° |
| 2026-05-08 20:19 | 55.93558 | 20.37044 | 24789 ft | 434 kts | 167° |
| 2026-05-08 20:19 | 55.90598 | 20.38060 | 24133 ft | 434 kts | 167° |
| 2026-05-08 20:19 | 55.87637 | 20.39074 | 23441 ft | 432 kts | 167° |
| 2026-05-08 20:20 | 55.84690 | 20.40081 | 22763 ft | 429 kts | 167° |
| 2026-05-08 20:20 | 55.81776 | 20.41077 | 22139 ft | 425 kts | 167° |
| 2026-05-08 20:20 | 55.78884 | 20.42068 | 21495 ft | 422 kts | 168° |
| 2026-05-08 20:20 | 55.76011 | 20.43050 | 20857 ft | 419 kts | 168° |
| 2026-05-08 20:21 | 55.73153 | 20.44022 | 20277 ft | 417 kts | 167° |
| 2026-05-08 20:21 | 55.70318 | 20.44980 | 19732 ft | 413 kts | 168° |
| 2026-05-08 20:21 | 55.67542 | 20.45924 | 19186 ft | 410 kts | 168° |
| 2026-05-08 20:21 | 55.64746 | 20.46881 | 18557 ft | 409 kts | 168° |
| 2026-05-08 20:22 | 55.61910 | 20.47841 | 17850 ft | 409 kts | 168° |
| 2026-05-08 20:22 | 55.59144 | 20.48766 | 17260 ft | 407 kts | 167° |
| 2026-05-08 20:22 | 55.56374 | 20.49697 | 16699 ft | 403 kts | 168° |
| 2026-05-08 20:22 | 55.54502 | 20.50326 | 16364 ft | 400 kts | 167° |
| 2026-05-08 20:23 | 55.50903 | 20.51535 | 15744 ft | 392 kts | 167° |
| 2026-05-08 20:23 | 55.48234 | 20.52436 | 15208 ft | 389 kts | 167° |
| 2026-05-08 20:23 | 55.45583 | 20.53322 | 14696 ft | 386 kts | 167° |
| 2026-05-08 20:23 | 55.42952 | 20.54193 | 14185 ft | 383 kts | 168° |
| 2026-05-08 20:24 | 55.40330 | 20.54934 | 13633 ft | 380 kts | 170° |
| 2026-05-08 20:24 | 55.37705 | 20.55433 | 13017 ft | 379 kts | 173° |
| 2026-05-08 20:24 | 55.35072 | 20.55687 | 12397 ft | 379 kts | 174° |
| 2026-05-08 20:24 | 55.32513 | 20.56622 | 11686 ft | 375 kts | 155° |
| 2026-05-08 20:25 | 55.30307 | 20.58930 | 11116 ft | 367 kts | 137° |
| 2026-05-08 20:25 | 55.29616 | 20.60068 | 10904 ft | 364 kts | 130° |
| 2026-05-08 20:25 | 55.28109 | 20.63556 | 10504 ft | 353 kts | 121° |
| 2026-05-08 20:25 | 55.26746 | 20.67030 | 9882 ft | 338 kts | 121° |
| 2026-05-08 20:26 | 55.25864 | 20.69286 | 9542 ft | 325 kts | 121° |
| 2026-05-08 20:26 | 55.24617 | 20.72465 | 9111 ft | 307 kts | 121° |
| 2026-05-08 20:26 | 55.23433 | 20.75462 | 8746 ft | 290 kts | 121° |
| 2026-05-08 20:26 | 55.22312 | 20.78282 | 8415 ft | 274 kts | 121° |
| 2026-05-08 20:27 | 55.21236 | 20.80980 | 8049 ft | 267 kts | 121° |
| 2026-05-08 20:27 | 55.20179 | 20.83621 | 7763 ft | 264 kts | 121° |
| 2026-05-08 20:27 | 55.19130 | 20.86253 | 7403 ft | 263 kts | 121° |
| 2026-05-08 20:27 | 55.18094 | 20.88887 | 7084 ft | 261 kts | 119° |
| 2026-05-08 20:28 | 55.17148 | 20.91583 | 6755 ft | 259 kts | 116° |
| 2026-05-08 20:28 | 55.16313 | 20.94334 | 6413 ft | 257 kts | 112° |
| 2026-05-08 20:28 | 55.15581 | 20.97168 | 6098 ft | 254 kts | 109° |
| 2026-05-08 20:28 | 55.14934 | 21.00018 | 5789 ft | 251 kts | 108° |
| 2026-05-08 20:29 | 55.14296 | 21.02853 | 5475 ft | 249 kts | 109° |
| 2026-05-08 20:29 | 55.13651 | 21.05648 | 5184 ft | 247 kts | 111° |
| 2026-05-08 20:29 | 55.12817 | 21.08272 | 4879 ft | 247 kts | 121° |
| 2026-05-08 20:29 | 55.11755 | 21.10634 | 4549 ft | 248 kts | 129° |
| 2026-05-08 20:30 | 55.10485 | 21.12701 | 4210 ft | 250 kts | 136° |
| 2026-05-08 20:30 | 55.09132 | 21.14610 | 3895 ft | 250 kts | 137° |
| 2026-05-08 20:30 | 55.07772 | 21.16485 | 3564 ft | 249 kts | 139° |
| 2026-05-08 20:30 | 55.06196 | 21.17749 | 3148 ft | 258 kts | 171° |
| 2026-05-08 20:31 | 55.04419 | 21.17191 | 2819 ft | 266 kts | 204° |
| 2026-05-08 20:31 | 55.02998 | 21.15124 | 2467 ft | 270 kts | 234° |
| 2026-05-08 20:31 | 55.02203 | 21.12155 | 2129 ft | 271 kts | 251° |
| 2026-05-08 20:31 | 55.01608 | 21.09051 | 2008 ft | 269 kts | 251° |
| 2026-05-08 20:32 | 55.00993 | 21.05952 | 2006 ft | 271 kts | 250° |
| 2026-05-08 20:32 | 55.00332 | 21.02929 | 1944 ft | 259 kts | 248° |
| 2026-05-08 20:32 | 54.99657 | 21.00155 | 2021 ft | 239 kts | 247° |
| 2026-05-08 20:32 | 54.99001 | 20.97594 | 2044 ft | 223 kts | 246° |
| 2026-05-08 20:33 | 54.98379 | 20.95224 | 2005 ft | 208 kts | 246° |
| 2026-05-08 20:33 | 54.97796 | 20.93017 | 1978 ft | 193 kts | 246° |
| 2026-05-08 20:33 | 54.97249 | 20.90942 | 1964 ft | 181 kts | 246° |
| 2026-05-08 20:33 | 54.96752 | 20.89050 | 1943 ft | 166 kts | 246° |
| 2026-05-08 20:34 | 54.96270 | 20.87212 | 1999 ft | 171 kts | 246° |
| 2026-05-08 20:34 | 54.95772 | 20.85304 | 2011 ft | 174 kts | 246° |
| 2026-05-08 20:34 | 54.94766 | 20.81454 | 2001 ft | 174 kts | 246° |
| 2026-05-08 20:35 | 54.94264 | 20.79529 | 2001 ft | 175 kts | 246° |
| 2026-05-08 20:35 | 54.93763 | 20.77603 | 1983 ft | 173 kts | 246° |
| 2026-05-08 20:35 | 54.93279 | 20.75745 | 1760 ft | 164 kts | 246° |
| 2026-05-08 20:35 | 54.92813 | 20.73950 | 1542 ft | 161 kts | 246° |
| 2026-05-08 20:36 | 54.92355 | 20.72186 | 1330 ft | 159 kts | 246° |
| 2026-05-08 20:36 | 54.91900 | 20.70433 | 1116 ft | 157 kts | 246° |
| 2026-05-08 20:36 | 54.91454 | 20.68713 | 903 ft | 155 kts | 246° |
| 2026-05-08 20:36 | 54.91017 | 20.67023 | 685 ft | 152 kts | 246° |
| 2026-05-08 20:37 | 54.90586 | 20.65361 | 487 ft | 150 kts | 247° |
| 2026-05-08 20:37 | 54.90164 | 20.63703 | 284 ft | 149 kts | 247° |
| 2026-05-08 20:37 | 54.89739 | 20.62063 | 82 ft | 148 kts | 246° |
| 2026-05-08 20:37 | 54.89347 | 20.60548 | 31 ft | 115 kts | 246° |
| 2026-05-08 20:38 | 54.89097 | 20.59593 | 32 ft | 62 kts | 245° |
| 2026-05-08 20:38 | 54.88962 | 20.59186 | 33 ft | 24 kts | 223° |
| 2026-05-08 20:38 | 54.88831 | 20.59046 | 34 ft | 16 kts | 207° |
| 2026-05-08 20:38 | 54.88793 | 20.59013 | 34 ft | 0 kts | 207° |
| 2026-05-08 20:39 | 54.88772 | 20.58995 | 35 ft | 2 kts | 205° |
| 2026-05-08 20:40 | 54.88748 | 20.58974 | 35 ft | 7 kts | 209° |
| 2026-05-08 20:40 | 54.88699 | 20.58858 | 35 ft | 6 kts | 246° |
| 2026-05-08 20:40 | 54.88683 | 20.58796 | 35 ft | 6 kts | 242° |
| 2026-05-08 20:40 | 54.88632 | 20.58775 | 35 ft | 10 kts | 169° |
| 2026-05-08 20:41 | 54.88584 | 20.58800 | 35 ft | 5 kts | 159° |
| 2026-05-08 20:41 | 54.88542 | 20.58827 | 35 ft | 8 kts | 163° |
| 2026-05-08 20:41 | 54.88511 | 20.58837 | 35 ft | 1 kts | 176° |
| 2026-05-08 20:41 | 54.88464 | 20.58839 | 35 ft | 9 kts | 191° |
| 2026-05-08 20:42 | 54.88436 | 20.58814 | 35 ft | 3 kts | 211° |
| 2026-05-08 20:42 | 54.88425 | 20.58800 | 35 ft | 1 kts | 221° |
| 2026-05-08 20:42 | 54.88418 | 20.58789 | 35 ft | 0 kts | 221° |